sensor_id;sensor_type;location;lat;lon;timestamp;P1;durP1;ratioP1;P2;durP2;ratioP2
21000;SDS011;10658;50.920;12.238;2022-09-28T00:03:26;1.92;;;1.25;;
21000;SDS011;10658;50.920;12.238;2022-09-28T00:07:27;1.88;;;1.10;;
21000;SDS011;10658;50.920;12.238;2022-09-28T00:11:29;1.25;;;1.10;;
21000;SDS011;10658;50.920;12.238;2022-09-28T00:15:30;1.77;;;1.10;;
21000;SDS011;10658;50.920;12.238;2022-09-28T00:19:31;0.85;;;0.70;;
21000;SDS011;10658;50.920;12.238;2022-09-28T00:23:33;0.57;;;0.55;;
21000;SDS011;10658;50.920;12.238;2022-09-28T00:27:55;0.85;;;0.52;;
21000;SDS011;10658;50.920;12.238;2022-09-28T00:31:58;1.08;;;1.00;;
21000;SDS011;10658;50.920;12.238;2022-09-28T00:36:04;0.52;;;0.52;;
21000;SDS011;10658;50.920;12.238;2022-09-28T00:40:06;1.17;;;1.08;;
21000;SDS011;10658;50.920;12.238;2022-09-28T00:48:26;0.70;;;0.55;;
21000;SDS011;10658;50.920;12.238;2022-09-28T00:52:33;1.02;;;0.80;;
21000;SDS011;10658;50.920;12.238;2022-09-28T00:56:40;1.08;;;0.57;;
21000;SDS011;10658;50.920;12.238;2022-09-28T01:00:44;0.77;;;0.40;;
21000;SDS011;10658;50.920;12.238;2022-09-28T01:04:45;0.55;;;0.40;;
21000;SDS011;10658;50.920;12.238;2022-09-28T01:08:48;0.75;;;0.63;;
21000;SDS011;10658;50.920;12.238;2022-09-28T01:12:53;1.70;;;0.60;;
21000;SDS011;10658;50.920;12.238;2022-09-28T01:21:23;1.13;;;0.80;;
21000;SDS011;10658;50.920;12.238;2022-09-28T01:34:36;0.93;;;0.60;;
21000;SDS011;10658;50.920;12.238;2022-09-28T01:43:08;0.80;;;0.50;;
21000;SDS011;10658;50.920;12.238;2022-09-28T01:47:14;2.67;;;0.52;;
21000;SDS011;10658;50.920;12.238;2022-09-28T01:51:31;0.70;;;0.40;;
21000;SDS011;10658;50.920;12.238;2022-09-28T01:55:44;0.88;;;0.60;;
21000;SDS011;10658;50.920;12.238;2022-09-28T01:59:58;0.45;;;0.43;;
21000;SDS011;10658;50.920;12.238;2022-09-28T02:04:19;0.32;;;0.30;;
21000;SDS011;10658;50.920;12.238;2022-09-28T02:08:28;1.55;;;0.90;;
21000;SDS011;10658;50.920;12.238;2022-09-28T02:12:47;1.02;;;0.70;;
21000;SDS011;10658;50.920;12.238;2022-09-28T02:16:54;2.22;;;0.80;;
21000;SDS011;10658;50.920;12.238;2022-09-28T02:21:11;0.88;;;0.88;;
21000;SDS011;10658;50.920;12.238;2022-09-28T02:29:45;1.38;;;1.02;;
21000;SDS011;10658;50.920;12.238;2022-09-28T02:33:48;2.90;;;0.70;;
21000;SDS011;10658;50.920;12.238;2022-09-28T02:37:50;1.77;;;1.05;;
21000;SDS011;10658;50.920;12.238;2022-09-28T02:51:25;3.90;;;1.60;;
21000;SDS011;10658;50.920;12.238;2022-09-28T02:59:49;1.85;;;1.50;;
21000;SDS011;10658;50.920;12.238;2022-09-28T03:04:03;1.98;;;1.63;;
21000;SDS011;10658;50.920;12.238;2022-09-28T03:12:23;2.58;;;1.60;;
21000;SDS011;10658;50.920;12.238;2022-09-28T03:16:26;2.05;;;1.48;;
21000;SDS011;10658;50.920;12.238;2022-09-28T03:20:28;2.97;;;1.65;;
21000;SDS011;10658;50.920;12.238;2022-09-28T03:24:30;2.33;;;1.50;;
21000;SDS011;10658;50.920;12.238;2022-09-28T03:28:32;2.35;;;1.73;;
21000;SDS011;10658;50.920;12.238;2022-09-28T03:32:34;1.77;;;1.40;;
21000;SDS011;10658;50.920;12.238;2022-09-28T03:36:36;2.53;;;1.50;;
21000;SDS011;10658;50.920;12.238;2022-09-28T03:40:37;1.63;;;1.40;;
21000;SDS011;10658;50.920;12.238;2022-09-28T03:44:39;5.75;;;2.13;;
21000;SDS011;10658;50.920;12.238;2022-09-28T03:48:41;3.42;;;1.85;;
21000;SDS011;10658;50.920;12.238;2022-09-28T03:52:43;3.30;;;2.00;;
21000;SDS011;10658;50.920;12.238;2022-09-28T03:56:45;1.98;;;1.65;;
21000;SDS011;10658;50.920;12.238;2022-09-28T04:00:46;1.73;;;1.42;;
21000;SDS011;10658;50.920;12.238;2022-09-28T04:04:59;2.28;;;1.90;;
21000;SDS011;10658;50.920;12.238;2022-09-28T04:09:00;1.83;;;1.70;;
21000;SDS011;10658;50.920;12.238;2022-09-28T04:13:04;2.13;;;1.48;;
21000;SDS011;10658;50.920;12.238;2022-09-28T04:17:06;3.33;;;2.08;;
21000;SDS011;10658;50.920;12.238;2022-09-28T04:21:09;4.20;;;1.60;;
21000;SDS011;10658;50.920;12.238;2022-09-28T04:25:16;4.63;;;1.75;;
21000;SDS011;10658;50.920;12.238;2022-09-28T04:29:17;1.88;;;1.55;;
21000;SDS011;10658;50.920;12.238;2022-09-28T04:33:25;1.63;;;1.52;;
21000;SDS011;10658;50.920;12.238;2022-09-28T04:37:26;2.13;;;1.83;;
21000;SDS011;10658;50.920;12.238;2022-09-28T04:41:30;2.55;;;1.98;;
21000;SDS011;10658;50.920;12.238;2022-09-28T04:45:31;2.22;;;1.85;;
21000;SDS011;10658;50.920;12.238;2022-09-28T04:49:39;4.28;;;2.63;;
21000;SDS011;10658;50.920;12.238;2022-09-28T04:54:03;3.35;;;2.13;;
21000;SDS011;10658;50.920;12.238;2022-09-28T04:58:04;2.70;;;2.25;;
21000;SDS011;10658;50.920;12.238;2022-09-28T05:02:05;4.88;;;2.50;;
21000;SDS011;10658;50.920;12.238;2022-09-28T05:06:25;4.45;;;2.00;;
21000;SDS011;10658;50.920;12.238;2022-09-28T05:10:37;2.50;;;2.30;;
21000;SDS011;10658;50.920;12.238;2022-09-28T05:14:40;3.92;;;2.08;;
21000;SDS011;10658;50.920;12.238;2022-09-28T05:18:41;2.35;;;2.03;;
21000;SDS011;10658;50.920;12.238;2022-09-28T05:22:42;5.28;;;2.50;;
21000;SDS011;10658;50.920;12.238;2022-09-28T05:26:44;2.92;;;1.90;;
21000;SDS011;10658;50.920;12.238;2022-09-28T05:30:45;2.45;;;2.08;;
21000;SDS011;10658;50.920;12.238;2022-09-28T05:35:09;4.47;;;2.28;;
21000;SDS011;10658;50.920;12.238;2022-09-28T05:39:14;2.83;;;1.55;;
21000;SDS011;10658;50.920;12.238;2022-09-28T05:43:16;2.22;;;1.95;;
21000;SDS011;10658;50.920;12.238;2022-09-28T05:47:17;4.32;;;1.92;;
21000;SDS011;10658;50.920;12.238;2022-09-28T05:51:18;2.97;;;2.35;;
21000;SDS011;10658;50.920;12.238;2022-09-28T05:55:20;2.17;;;1.58;;
21000;SDS011;10658;50.920;12.238;2022-09-28T05:59:21;1.92;;;1.73;;
21000;SDS011;10658;50.920;12.238;2022-09-28T06:03:23;4.15;;;1.92;;
21000;SDS011;10658;50.920;12.238;2022-09-28T06:07:27;2.50;;;1.83;;
21000;SDS011;10658;50.920;12.238;2022-09-28T06:11:30;2.17;;;1.92;;
21000;SDS011;10658;50.920;12.238;2022-09-28T06:15:34;1.92;;;1.75;;
21000;SDS011;10658;50.920;12.238;2022-09-28T06:19:36;3.60;;;1.75;;
21000;SDS011;10658;50.920;12.238;2022-09-28T06:23:59;2.08;;;1.75;;
21000;SDS011;10658;50.920;12.238;2022-09-28T06:28:01;2.17;;;1.98;;
21000;SDS011;10658;50.920;12.238;2022-09-28T06:32:04;2.20;;;1.92;;
21000;SDS011;10658;50.920;12.238;2022-09-28T06:36:07;3.42;;;1.88;;
21000;SDS011;10658;50.920;12.238;2022-09-28T06:40:11;1.90;;;1.80;;
21000;SDS011;10658;50.920;12.238;2022-09-28T06:44:12;2.58;;;1.70;;
21000;SDS011;10658;50.920;12.238;2022-09-28T06:48:31;2.30;;;1.80;;
21000;SDS011;10658;50.920;12.238;2022-09-28T06:52:34;1.65;;;1.35;;
21000;SDS011;10658;50.920;12.238;2022-09-28T06:56:54;4.70;;;2.30;;
21000;SDS011;10658;50.920;12.238;2022-09-28T07:00:55;1.35;;;1.25;;
21000;SDS011;10658;50.920;12.238;2022-09-28T07:05:01;4.00;;;2.33;;
21000;SDS011;10658;50.920;12.238;2022-09-28T07:09:13;10.27;;;2.05;;
21000;SDS011;10658;50.920;12.238;2022-09-28T07:13:32;3.40;;;1.60;;
21000;SDS011;10658;50.920;12.238;2022-09-28T07:17:40;1.98;;;1.40;;
21000;SDS011;10658;50.920;12.238;2022-09-28T07:21:41;2.00;;;1.40;;
21000;SDS011;10658;50.920;12.238;2022-09-28T07:25:42;5.28;;;1.77;;
21000;SDS011;10658;50.920;12.238;2022-09-28T07:30:04;1.13;;;1.02;;
21000;SDS011;10658;50.920;12.238;2022-09-28T07:34:38;3.63;;;1.38;;
21000;SDS011;10658;50.920;12.238;2022-09-28T07:38:48;1.10;;;1.00;;
21000;SDS011;10658;50.920;12.238;2022-09-28T07:42:51;0.98;;;0.98;;
21000;SDS011;10658;50.920;12.238;2022-09-28T07:46:52;1.13;;;1.00;;
21000;SDS011;10658;50.920;12.238;2022-09-28T07:50:59;1.38;;;1.00;;
21000;SDS011;10658;50.920;12.238;2022-09-28T07:55:26;1.10;;;1.00;;
21000;SDS011;10658;50.920;12.238;2022-09-28T07:59:40;0.98;;;0.98;;
21000;SDS011;10658;50.920;12.238;2022-09-28T08:04:14;1.85;;;1.30;;
21000;SDS011;10658;50.920;12.238;2022-09-28T08:08:17;1.98;;;1.23;;
21000;SDS011;10658;50.920;12.238;2022-09-28T08:12:20;1.77;;;1.20;;
21000;SDS011;10658;50.920;12.238;2022-09-28T08:16:35;3.28;;;1.10;;
21000;SDS011;10658;50.920;12.238;2022-09-28T08:20:45;2.30;;;1.27;;
21000;SDS011;10658;50.920;12.238;2022-09-28T08:25:06;1.92;;;1.50;;
21000;SDS011;10658;50.920;12.238;2022-09-28T08:29:07;1.58;;;1.27;;
21000;SDS011;10658;50.920;12.238;2022-09-28T08:33:34;1.42;;;0.80;;
21000;SDS011;10658;50.920;12.238;2022-09-28T08:37:54;3.42;;;1.38;;
21000;SDS011;10658;50.920;12.238;2022-09-28T08:42:58;1.45;;;0.98;;
21000;SDS011;10658;50.920;12.238;2022-09-28T08:46:46;4.05;;;1.55;;
21000;SDS011;10658;50.920;12.238;2022-09-28T08:56:05;2.25;;;1.30;;
21000;SDS011;10658;50.920;12.238;2022-09-28T09:00:19;2.55;;;1.40;;
21000;SDS011;10658;50.920;12.238;2022-09-28T09:04:32;1.40;;;1.27;;
21000;SDS011;10658;50.920;12.238;2022-09-28T09:09:04;1.55;;;1.30;;
21000;SDS011;10658;50.920;12.238;2022-09-28T09:13:32;1.10;;;1.00;;
21000;SDS011;10658;50.920;12.238;2022-09-28T09:22:38;1.27;;;0.98;;
21000;SDS011;10658;50.920;12.238;2022-09-28T09:26:46;1.33;;;1.23;;
21000;SDS011;10658;50.920;12.238;2022-09-28T09:31:28;1.83;;;1.20;;
21000;SDS011;10658;50.920;12.238;2022-09-28T09:49:22;2.15;;;1.20;;
21000;SDS011;10658;50.920;12.238;2022-09-28T09:53:28;1.27;;;1.13;;
21000;SDS011;10658;50.920;12.238;2022-09-28T09:57:47;2.03;;;1.15;;
21000;SDS011;10658;50.920;12.238;2022-09-28T10:02:33;1.92;;;1.15;;
21000;SDS011;10658;50.920;12.238;2022-09-28T10:06:42;1.00;;;0.95;;
21000;SDS011;10658;50.920;12.238;2022-09-28T10:10:54;1.70;;;0.50;;
21000;SDS011;10658;50.920;12.238;2022-09-28T10:15:12;0.93;;;0.70;;
21000;SDS011;10658;50.920;12.238;2022-09-28T10:19:32;0.90;;;0.68;;
21000;SDS011;10658;50.920;12.238;2022-09-28T10:23:58;0.60;;;0.57;;
21000;SDS011;10658;50.920;12.238;2022-09-28T10:28:04;1.70;;;0.63;;
21000;SDS011;10658;50.920;12.238;2022-09-28T10:32:21;0.70;;;0.70;;
21000;SDS011;10658;50.920;12.238;2022-09-28T10:36:30;0.70;;;0.70;;
21000;SDS011;10658;50.920;12.238;2022-09-28T10:40:44;1.63;;;1.00;;
21000;SDS011;10658;50.920;12.238;2022-09-28T10:44:59;1.20;;;0.93;;
21000;SDS011;10658;50.920;12.238;2022-09-28T10:49:12;0.85;;;0.70;;
21000;SDS011;10658;50.920;12.238;2022-09-28T10:53:20;1.23;;;1.13;;
21000;SDS011;10658;50.920;12.238;2022-09-28T10:57:42;1.55;;;0.90;;
21000;SDS011;10658;50.920;12.238;2022-09-28T11:01:45;0.95;;;0.70;;
21000;SDS011;10658;50.920;12.238;2022-09-28T11:05:54;2.45;;;0.80;;
21000;SDS011;10658;50.920;12.238;2022-09-28T11:10:00;1.88;;;0.70;;
21000;SDS011;10658;50.920;12.238;2022-09-28T11:14:05;1.02;;;0.77;;
21000;SDS011;10658;50.920;12.238;2022-09-28T11:18:26;1.60;;;0.50;;
21000;SDS011;10658;50.920;12.238;2022-09-28T11:26:44;3.58;;;0.80;;
21000;SDS011;10658;50.920;12.238;2022-09-28T11:30:55;0.60;;;0.52;;
21000;SDS011;10658;50.920;12.238;2022-09-28T11:35:05;0.60;;;0.50;;
21000;SDS011;10658;50.920;12.238;2022-09-28T11:39:13;1.25;;;0.60;;
21000;SDS011;10658;50.920;12.238;2022-09-28T11:48:07;1.40;;;0.80;;
21000;SDS011;10658;50.920;12.238;2022-09-28T11:52:28;0.43;;;0.43;;
21000;SDS011;10658;50.920;12.238;2022-09-28T11:56:46;1.35;;;0.60;;
21000;SDS011;10658;50.920;12.238;2022-09-28T12:00:51;0.60;;;0.45;;
21000;SDS011;10658;50.920;12.238;2022-09-28T12:05:10;1.33;;;0.70;;
21000;SDS011;10658;50.920;12.238;2022-09-28T12:09:45;0.52;;;0.52;;
21000;SDS011;10658;50.920;12.238;2022-09-28T12:13:52;1.65;;;0.45;;
21000;SDS011;10658;50.920;12.238;2022-09-28T12:17:59;0.82;;;0.63;;
21000;SDS011;10658;50.920;12.238;2022-09-28T12:22:24;1.60;;;0.93;;
21000;SDS011;10658;50.920;12.238;2022-09-28T12:31:09;1.20;;;1.10;;
21000;SDS011;10658;50.920;12.238;2022-09-28T12:40:02;1.80;;;1.30;;
21000;SDS011;10658;50.920;12.238;2022-09-28T12:49:04;1.45;;;1.00;;
21000;SDS011;10658;50.920;12.238;2022-09-28T12:57:31;1.67;;;1.17;;
21000;SDS011;10658;50.920;12.238;2022-09-28T13:06:36;5.07;;;1.75;;
21000;SDS011;10658;50.920;12.238;2022-09-28T13:24:27;4.63;;;1.20;;
21000;SDS011;10658;50.920;12.238;2022-09-28T13:28:33;2.53;;;1.17;;
21000;SDS011;10658;50.920;12.238;2022-09-28T13:32:43;3.20;;;1.23;;
21000;SDS011;10658;50.920;12.238;2022-09-28T13:37:07;1.55;;;1.38;;
21000;SDS011;10658;50.920;12.238;2022-09-28T13:41:10;2.25;;;0.98;;
21000;SDS011;10658;50.920;12.238;2022-09-28T13:49:23;1.77;;;1.10;;
21000;SDS011;10658;50.920;12.238;2022-09-28T14:07:14;2.15;;;1.30;;
21000;SDS011;10658;50.920;12.238;2022-09-28T14:15:43;1.30;;;1.20;;
21000;SDS011;10658;50.920;12.238;2022-09-28T14:19:48;2.65;;;1.23;;
21000;SDS011;10658;50.920;12.238;2022-09-28T14:33:23;1.95;;;0.90;;
21000;SDS011;10658;50.920;12.238;2022-09-28T14:37:30;1.92;;;1.38;;
21000;SDS011;10658;50.920;12.238;2022-09-28T14:41:57;2.28;;;1.52;;
21000;SDS011;10658;50.920;12.238;2022-09-28T14:50:20;3.67;;;1.67;;
21000;SDS011;10658;50.920;12.238;2022-09-28T14:54:25;4.03;;;1.67;;
21000;SDS011;10658;50.920;12.238;2022-09-28T14:58:29;1.77;;;1.65;;
21000;SDS011;10658;50.920;12.238;2022-09-28T15:02:32;3.05;;;2.00;;
21000;SDS011;10658;50.920;12.238;2022-09-28T15:06:44;1.33;;;1.23;;
21000;SDS011;10658;50.920;12.238;2022-09-28T15:10:47;2.35;;;1.50;;
21000;SDS011;10658;50.920;12.238;2022-09-28T15:14:52;2.05;;;1.60;;
21000;SDS011;10658;50.920;12.238;2022-09-28T15:27:37;1.00;;;0.90;;
21000;SDS011;10658;50.920;12.238;2022-09-28T15:31:39;1.60;;;1.08;;
21000;SDS011;10658;50.920;12.238;2022-09-28T15:35:39;3.22;;;1.27;;
21000;SDS011;10658;50.920;12.238;2022-09-28T15:39:42;0.98;;;0.80;;
21000;SDS011;10658;50.920;12.238;2022-09-28T15:43:45;2.53;;;1.23;;
21000;SDS011;10658;50.920;12.238;2022-09-28T15:48:28;2.35;;;1.10;;
21000;SDS011;10658;50.920;12.238;2022-09-28T15:52:52;1.33;;;1.23;;
21000;SDS011;10658;50.920;12.238;2022-09-28T15:57:00;1.35;;;1.23;;
21000;SDS011;10658;50.920;12.238;2022-09-28T16:01:17;1.92;;;1.23;;
21000;SDS011;10658;50.920;12.238;2022-09-28T16:05:47;2.15;;;1.40;;
21000;SDS011;10658;50.920;12.238;2022-09-28T16:10:26;2.67;;;1.80;;
21000;SDS011;10658;50.920;12.238;2022-09-28T16:14:32;3.85;;;2.05;;
21000;SDS011;10658;50.920;12.238;2022-09-28T16:18:33;1.70;;;1.30;;
21000;SDS011;10658;50.920;12.238;2022-09-28T16:22:39;2.40;;;1.23;;
21000;SDS011;10658;50.920;12.238;2022-09-28T16:26:42;1.15;;;0.90;;
21000;SDS011;10658;50.920;12.238;2022-09-28T16:31:06;2.72;;;1.50;;
21000;SDS011;10658;50.920;12.238;2022-09-28T16:35:24;2.33;;;1.00;;
21000;SDS011;10658;50.920;12.238;2022-09-28T16:39:31;1.52;;;0.90;;
21000;SDS011;10658;50.920;12.238;2022-09-28T16:43:32;1.20;;;1.10;;
21000;SDS011;10658;50.920;12.238;2022-09-28T16:47:35;1.67;;;1.40;;
21000;SDS011;10658;50.920;12.238;2022-09-28T16:51:37;1.50;;;1.40;;
21000;SDS011;10658;50.920;12.238;2022-09-28T16:55:39;1.50;;;1.33;;
21000;SDS011;10658;50.920;12.238;2022-09-28T16:59:40;3.75;;;1.27;;
21000;SDS011;10658;50.920;12.238;2022-09-28T17:03:41;10.52;;;5.70;;
21000;SDS011;10658;50.920;12.238;2022-09-28T17:07:47;6.38;;;4.22;;
21000;SDS011;10658;50.920;12.238;2022-09-28T17:11:52;9.77;;;6.97;;
21000;SDS011;10658;50.920;12.238;2022-09-28T17:15:56;4.35;;;3.33;;
21000;SDS011;10658;50.920;12.238;2022-09-28T17:19:57;5.10;;;2.85;;
21000;SDS011;10658;50.920;12.238;2022-09-28T17:23:58;2.33;;;2.13;;
21000;SDS011;10658;50.920;12.238;2022-09-28T17:28:00;3.03;;;1.70;;
21000;SDS011;10658;50.920;12.238;2022-09-28T17:32:04;3.13;;;2.28;;
21000;SDS011;10658;50.920;12.238;2022-09-28T17:36:13;3.33;;;1.67;;
21000;SDS011;10658;50.920;12.238;2022-09-28T17:44:23;2.22;;;1.70;;
21000;SDS011;10658;50.920;12.238;2022-09-28T17:48:24;3.22;;;1.70;;
21000;SDS011;10658;50.920;12.238;2022-09-28T17:52:25;2.35;;;1.50;;
21000;SDS011;10658;50.920;12.238;2022-09-28T17:56:27;3.00;;;2.00;;
21000;SDS011;10658;50.920;12.238;2022-09-28T18:00:29;4.60;;;2.90;;
21000;SDS011;10658;50.920;12.238;2022-09-28T18:04:31;4.22;;;3.15;;
21000;SDS011;10658;50.920;12.238;2022-09-28T18:08:33;5.90;;;4.20;;
21000;SDS011;10658;50.920;12.238;2022-09-28T18:12:36;6.85;;;4.43;;
21000;SDS011;10658;50.920;12.238;2022-09-28T18:16:36;4.32;;;2.60;;
21000;SDS011;10658;50.920;12.238;2022-09-28T18:20:38;5.07;;;2.58;;
21000;SDS011;10658;50.920;12.238;2022-09-28T18:24:41;4.50;;;2.90;;
21000;SDS011;10658;50.920;12.238;2022-09-28T18:28:42;7.38;;;4.07;;
21000;SDS011;10658;50.920;12.238;2022-09-28T18:32:42;6.70;;;4.55;;
21000;SDS011;10658;50.920;12.238;2022-09-28T18:36:43;4.80;;;2.42;;
21000;SDS011;10658;50.920;12.238;2022-09-28T18:40:44;3.22;;;2.17;;
21000;SDS011;10658;50.920;12.238;2022-09-28T18:44:47;3.47;;;2.38;;
21000;SDS011;10658;50.920;12.238;2022-09-28T18:48:48;2.78;;;1.80;;
21000;SDS011;10658;50.920;12.238;2022-09-28T18:52:50;2.58;;;1.80;;
21000;SDS011;10658;50.920;12.238;2022-09-28T18:56:54;1.98;;;1.55;;
21000;SDS011;10658;50.920;12.238;2022-09-28T19:00:56;2.95;;;2.15;;
21000;SDS011;10658;50.920;12.238;2022-09-28T19:04:57;4.18;;;2.90;;
21000;SDS011;10658;50.920;12.238;2022-09-28T19:08:58;3.72;;;2.38;;
21000;SDS011;10658;50.920;12.238;2022-09-28T19:13:00;3.20;;;2.33;;
21000;SDS011;10658;50.920;12.238;2022-09-28T19:17:00;4.47;;;2.95;;
21000;SDS011;10658;50.920;12.238;2022-09-28T19:21:05;4.53;;;2.80;;
21000;SDS011;10658;50.920;12.238;2022-09-28T19:25:10;4.35;;;2.72;;
21000;SDS011;10658;50.920;12.238;2022-09-28T19:29:13;5.93;;;2.88;;
21000;SDS011;10658;50.920;12.238;2022-09-28T19:33:14;3.60;;;2.65;;
21000;SDS011;10658;50.920;12.238;2022-09-28T19:37:17;3.50;;;2.80;;
21000;SDS011;10658;50.920;12.238;2022-09-28T19:41:23;4.47;;;2.60;;
21000;SDS011;10658;50.920;12.238;2022-09-28T19:45:42;3.80;;;2.60;;
21000;SDS011;10658;50.920;12.238;2022-09-28T19:49:43;5.18;;;3.42;;
21000;SDS011;10658;50.920;12.238;2022-09-28T19:53:44;3.50;;;2.45;;
21000;SDS011;10658;50.920;12.238;2022-09-28T19:57:45;5.78;;;3.17;;
21000;SDS011;10658;50.920;12.238;2022-09-28T20:01:47;6.40;;;2.55;;
21000;SDS011;10658;50.920;12.238;2022-09-28T20:05:54;3.42;;;2.30;;
21000;SDS011;10658;50.920;12.238;2022-09-28T20:09:56;4.60;;;3.03;;
21000;SDS011;10658;50.920;12.238;2022-09-28T20:13:58;4.93;;;2.92;;
21000;SDS011;10658;50.920;12.238;2022-09-28T20:17:59;3.92;;;2.67;;
21000;SDS011;10658;50.920;12.238;2022-09-28T20:22:00;3.58;;;2.58;;
21000;SDS011;10658;50.920;12.238;2022-09-28T20:26:02;6.03;;;2.67;;
21000;SDS011;10658;50.920;12.238;2022-09-28T20:30:05;5.50;;;3.10;;
21000;SDS011;10658;50.920;12.238;2022-09-28T20:34:06;6.18;;;3.00;;
21000;SDS011;10658;50.920;12.238;2022-09-28T20:38:09;5.13;;;2.67;;
21000;SDS011;10658;50.920;12.238;2022-09-28T20:42:10;4.13;;;3.13;;
21000;SDS011;10658;50.920;12.238;2022-09-28T20:46:11;5.10;;;2.58;;
21000;SDS011;10658;50.920;12.238;2022-09-28T20:50:13;4.65;;;2.92;;
21000;SDS011;10658;50.920;12.238;2022-09-28T20:54:15;3.97;;;2.65;;
21000;SDS011;10658;50.920;12.238;2022-09-28T20:58:16;3.10;;;2.60;;
21000;SDS011;10658;50.920;12.238;2022-09-28T21:02:17;4.07;;;2.28;;
21000;SDS011;10658;50.920;12.238;2022-09-28T21:06:20;4.13;;;2.80;;
21000;SDS011;10658;50.920;12.238;2022-09-28T21:10:22;2.70;;;2.33;;
21000;SDS011;10658;50.920;12.238;2022-09-28T21:14:24;3.30;;;2.55;;
21000;SDS011;10658;50.920;12.238;2022-09-28T21:18:26;5.50;;;2.70;;
21000;SDS011;10658;50.920;12.238;2022-09-28T21:22:27;6.35;;;2.17;;
21000;SDS011;10658;50.920;12.238;2022-09-28T21:26:29;2.60;;;2.15;;
21000;SDS011;10658;50.920;12.238;2022-09-28T21:30:31;2.90;;;2.13;;
21000;SDS011;10658;50.920;12.238;2022-09-28T21:34:32;3.40;;;2.20;;
21000;SDS011;10658;50.920;12.238;2022-09-28T21:38:35;3.75;;;2.00;;
21000;SDS011;10658;50.920;12.238;2022-09-28T21:42:36;3.10;;;2.35;;
21000;SDS011;10658;50.920;12.238;2022-09-28T21:46:37;3.45;;;2.65;;
21000;SDS011;10658;50.920;12.238;2022-09-28T21:50:38;4.53;;;2.88;;
21000;SDS011;10658;50.920;12.238;2022-09-28T21:54:40;3.15;;;2.70;;
21000;SDS011;10658;50.920;12.238;2022-09-28T21:58:43;7.00;;;3.08;;
21000;SDS011;10658;50.920;12.238;2022-09-28T22:02:45;3.95;;;2.47;;
21000;SDS011;10658;50.920;12.238;2022-09-28T22:06:46;3.35;;;2.28;;
21000;SDS011;10658;50.920;12.238;2022-09-28T22:10:57;2.83;;;2.20;;
21000;SDS011;10658;50.920;12.238;2022-09-28T22:15:00;3.17;;;2.33;;
21000;SDS011;10658;50.920;12.238;2022-09-28T22:19:01;3.97;;;2.42;;
21000;SDS011;10658;50.920;12.238;2022-09-28T22:23:02;2.72;;;2.20;;
21000;SDS011;10658;50.920;12.238;2022-09-28T22:27:03;3.70;;;2.35;;
21000;SDS011;10658;50.920;12.238;2022-09-28T22:31:04;3.35;;;2.10;;
21000;SDS011;10658;50.920;12.238;2022-09-28T22:35:05;3.78;;;2.38;;
21000;SDS011;10658;50.920;12.238;2022-09-28T22:39:07;3.90;;;2.72;;
21000;SDS011;10658;50.920;12.238;2022-09-28T22:43:08;3.65;;;2.15;;
21000;SDS011;10658;50.920;12.238;2022-09-28T22:47:09;3.05;;;2.08;;
21000;SDS011;10658;50.920;12.238;2022-09-28T22:51:10;3.88;;;2.25;;
21000;SDS011;10658;50.920;12.238;2022-09-28T22:55:11;2.90;;;2.20;;
21000;SDS011;10658;50.920;12.238;2022-09-28T22:59:13;2.97;;;2.10;;
21000;SDS011;10658;50.920;12.238;2022-09-28T23:03:14;2.25;;;2.05;;
21000;SDS011;10658;50.920;12.238;2022-09-28T23:07:16;3.53;;;2.25;;
21000;SDS011;10658;50.920;12.238;2022-09-28T23:11:18;3.15;;;2.55;;
21000;SDS011;10658;50.920;12.238;2022-09-28T23:15:20;3.90;;;2.83;;
21000;SDS011;10658;50.920;12.238;2022-09-28T23:19:22;3.03;;;2.30;;
21000;SDS011;10658;50.920;12.238;2022-09-28T23:23:26;4.03;;;2.17;;
21000;SDS011;10658;50.920;12.238;2022-09-28T23:27:28;2.67;;;1.83;;
21000;SDS011;10658;50.920;12.238;2022-09-28T23:31:30;3.63;;;2.10;;
21000;SDS011;10658;50.920;12.238;2022-09-28T23:35:32;2.78;;;2.10;;
21000;SDS011;10658;50.920;12.238;2022-09-28T23:39:34;3.28;;;2.30;;
21000;SDS011;10658;50.920;12.238;2022-09-28T23:43:35;5.63;;;2.40;;
21000;SDS011;10658;50.920;12.238;2022-09-28T23:47:37;4.47;;;2.35;;
21000;SDS011;10658;50.920;12.238;2022-09-28T23:51:38;3.60;;;2.38;;
21000;SDS011;10658;50.920;12.238;2022-09-28T23:55:40;3.58;;;2.33;;
21000;SDS011;10658;50.920;12.238;2022-09-28T23:59:42;3.42;;;2.42;;
